createdAt,value
2022-09-22T00:00:59.982Z,97882.84
2022-09-22T00:03:02.586Z,97882.03
2022-09-22T00:05:05.642Z,97887.19
2022-09-22T00:07:09.604Z,97881.97
2022-09-22T00:09:14.406Z,97882.94
2022-09-22T00:11:18.702Z,97876.09
2022-09-22T00:13:21.230Z,97868.34
2022-09-22T00:15:24.154Z,97874.44
2022-09-22T00:17:26.699Z,97868.34
2022-09-22T00:19:31.561Z,97873.66
2022-09-22T00:21:34.114Z,97868.47
2022-09-22T00:23:38.437Z,97866.63
2022-09-22T00:25:41.525Z,97862.50
2022-09-22T00:27:44.398Z,97858.28
2022-09-22T00:29:46.988Z,97858.31
2022-09-22T00:31:49.536Z,97860.91
2022-09-22T00:33:53.101Z,97855.00
2022-09-22T00:35:59.655Z,97852.41
2022-09-22T00:38:02.231Z,97851.59
2022-09-22T00:40:07.500Z,97843.78
2022-09-22T00:42:12.448Z,97841.25
2022-09-22T00:44:37.038Z,97837.81
2022-09-22T00:46:42.623Z,97840.38
2022-09-22T00:48:49.852Z,97832.63
2022-09-22T00:50:55.467Z,97838.63
2022-09-22T00:53:02.001Z,97835.22
2022-09-22T00:55:09.642Z,97828.13
2022-09-22T00:57:17.133Z,97824.00
2022-09-22T00:59:22.796Z,97830.88
2022-09-22T01:01:25.413Z,97832.66
2022-09-22T01:03:30.121Z,97829.31
2022-09-22T01:05:34.875Z,97816.31
2022-09-22T01:07:38.114Z,97821.50
2022-09-22T01:09:40.634Z,97818.06
2022-09-22T01:11:44.724Z,97815.41
2022-09-22T01:13:55.853Z,97818.94
2022-09-22T01:16:26.164Z,97819.84
2022-09-22T01:18:38.232Z,97811.28
2022-09-22T01:21:03.274Z,97801.88
2022-09-22T01:23:25.350Z,97817.59
2022-09-22T01:25:40.275Z,97804.69
2022-09-22T01:28:15.376Z,97813.31
2022-09-22T01:30:22.346Z,97808.13
2022-09-22T01:32:31.306Z,97810.63
2022-09-22T01:34:37.059Z,97812.34
2022-09-22T01:36:45.857Z,97810.63
2022-09-22T01:38:59.540Z,97820.19
2022-09-22T01:41:07.413Z,97804.53
2022-09-22T01:43:17.591Z,97814.09
2022-09-22T01:45:24.899Z,97815.03
2022-09-22T01:47:33.437Z,97817.53
2022-09-22T01:49:40.894Z,97814.97
2022-09-22T01:51:48.683Z,97815.88
2022-09-22T01:53:55.645Z,97818.50
2022-09-22T01:56:05.182Z,97808.16
2022-09-22T01:58:12.991Z,97804.75
2022-09-22T02:00:15.925Z,97816.88
2022-09-22T02:02:27.157Z,97815.97
2022-09-22T02:04:36.114Z,97815.94
2022-09-22T02:06:43.963Z,97808.31
2022-09-22T02:08:55.809Z,97814.41
2022-09-22T02:11:01.000Z,97808.44
2022-09-22T02:13:03.907Z,97816.28
2022-09-22T02:15:28.882Z,97811.13
2022-09-22T02:17:35.406Z,97819.91
2022-09-22T02:19:39.935Z,97823.31
2022-09-22T02:21:45.420Z,97824.22
2022-09-22T02:23:49.367Z,97827.72
2022-09-22T02:25:52.785Z,97825.19
2022-09-22T02:27:57.687Z,97822.53
2022-09-22T02:30:04.613Z,97819.03
2022-09-22T02:32:10.551Z,97815.66
2022-09-22T02:34:14.913Z,97820.03
2022-09-22T02:36:37.968Z,97816.63
2022-09-22T02:38:45.804Z,97813.19
2022-09-22T02:40:58.233Z,97815.72
2022-09-22T02:43:08.124Z,97810.63
2022-09-22T02:45:15.951Z,97808.03
2022-09-22T02:47:27.891Z,97813.31
2022-09-22T02:49:31.936Z,97815.06
2022-09-22T02:51:34.709Z,97823.75
2022-09-22T02:53:37.750Z,97811.66
2022-09-22T02:55:40.679Z,97807.34
2022-09-22T02:57:43.713Z,97812.53
2022-09-22T02:59:46.218Z,97815.97
2022-09-22T03:01:49.758Z,97806.50
2022-09-22T03:03:52.388Z,97811.63
2022-09-22T03:05:56.316Z,97809.97
2022-09-22T03:07:59.139Z,97810.00
2022-09-22T03:10:01.660Z,97810.97
2022-09-22T03:12:04.530Z,97809.28
2022-09-22T03:14:07.086Z,97814.50
2022-09-22T03:16:09.654Z,97813.63
2022-09-22T03:18:12.318Z,97811.03
2022-09-22T03:20:17.381Z,97808.41
2022-09-22T03:22:21.288Z,97813.56
2022-09-22T03:24:23.991Z,97805.72
2022-09-22T03:26:26.557Z,97800.50
2022-09-22T03:28:29.735Z,97799.53
2022-09-22T03:30:32.388Z,97806.59
2022-09-22T03:32:35.770Z,97797.09
2022-09-22T03:34:38.296Z,97803.16
2022-09-22T03:36:40.862Z,97803.09
2022-09-22T03:38:44.847Z,97797.94
2022-09-22T03:40:52.378Z,97800.53
2022-09-22T03:42:55.502Z,97804.03
2022-09-22T03:44:58.369Z,97804.91
2022-09-22T03:47:01.074Z,97803.25
2022-09-22T03:49:04.150Z,97792.91
2022-09-22T03:51:07.142Z,97799.00
2022-09-22T03:53:09.686Z,97801.59
2022-09-22T03:55:13.599Z,97796.44
2022-09-22T03:57:16.266Z,97798.13
2022-09-22T03:59:18.861Z,97797.25
2022-09-22T04:01:21.536Z,97796.38
2022-09-22T04:03:24.591Z,97790.38
2022-09-22T04:05:27.404Z,97790.41
2022-09-22T04:07:29.928Z,97793.88
2022-09-22T04:09:32.589Z,97793.00
2022-09-22T04:11:37.442Z,97794.72
2022-09-22T04:13:45.965Z,97788.75
2022-09-22T04:15:48.867Z,97786.19
2022-09-22T04:17:51.416Z,97787.94
2022-09-22T04:19:55.213Z,97784.47
2022-09-22T04:21:57.730Z,97781.81
2022-09-22T04:24:00.365Z,97778.44
2022-09-22T04:26:03.237Z,97791.47
2022-09-22T04:28:07.875Z,97784.50
2022-09-22T04:30:12.024Z,97784.63
2022-09-22T04:32:15.111Z,97783.81
2022-09-22T04:36:57.763Z,97785.59
2022-09-22T04:39:02.952Z,97784.72
2022-09-22T04:41:05.744Z,97788.13
2022-09-22T04:43:08.326Z,97793.41
2022-09-22T04:45:11.773Z,97793.28
2022-09-22T04:47:14.545Z,97790.78
2022-09-22T04:49:17.131Z,97792.56
2022-09-22T04:51:19.657Z,97793.44
2022-09-22T04:53:23.600Z,97794.38
2022-09-22T04:55:26.533Z,97786.63
2022-09-22T04:57:29.160Z,97795.25
2022-09-22T04:59:31.730Z,97793.56
2022-09-22T05:01:34.700Z,97799.69
2022-09-22T05:03:39.001Z,97801.31
2022-09-22T05:05:41.674Z,97803.94
2022-09-22T05:07:45.786Z,97799.59
2022-09-22T05:09:49.649Z,97801.38
2022-09-22T05:11:52.535Z,97804.03
2022-09-22T05:13:56.032Z,97805.78
2022-09-22T05:15:59.450Z,97804.06
2022-09-22T05:18:02.064Z,97800.63
2022-09-22T05:20:05.453Z,97798.03
2022-09-22T05:22:08.055Z,97803.22
2022-09-22T05:24:10.789Z,97798.97
2022-09-22T05:26:14.889Z,97803.34
2022-09-22T05:28:17.406Z,97804.19
2022-09-22T05:30:21.390Z,97801.63
2022-09-22T05:32:23.967Z,97806.94
2022-09-22T05:34:26.503Z,97806.03
2022-09-22T05:36:29.162Z,97805.13
2022-09-22T05:38:31.689Z,97817.97
2022-09-22T05:40:34.530Z,97806.69
2022-09-22T05:42:43.634Z,97811.84
2022-09-22T05:44:46.221Z,97809.31
2022-09-22T05:46:48.845Z,97811.91
2022-09-22T05:48:51.436Z,97814.47
2022-09-22T05:50:54.000Z,97817.00
2022-09-22T05:53:04.893Z,97811.78
2022-09-22T05:55:08.456Z,97811.75
2022-09-22T05:57:10.986Z,97816.88
2022-09-22T05:59:14.900Z,97818.59
2022-09-22T06:01:17.593Z,97812.50
2022-09-22T06:03:20.175Z,97815.97
2022-09-22T06:05:22.896Z,97812.47
2022-09-22T06:07:25.429Z,97817.63
2022-09-22T06:09:27.953Z,97819.31
2022-09-22T06:11:30.536Z,97821.03
2022-09-22T06:13:33.128Z,97822.75
2022-09-22T06:15:38.249Z,97823.53
2022-09-22T06:17:43.500Z,97818.34
2022-09-22T06:19:49.790Z,97824.34
2022-09-22T06:21:52.590Z,97826.84
2022-09-22T06:23:57.534Z,97825.91
2022-09-22T06:26:00.399Z,97818.06
2022-09-22T06:28:07.532Z,97823.25
2022-09-22T06:30:11.655Z,97818.00
2022-09-22T06:32:15.563Z,97824.84
2022-09-22T06:34:18.792Z,97823.06
2022-09-22T06:36:24.036Z,97820.47
2022-09-22T06:38:26.648Z,97817.78
2022-09-22T06:40:29.305Z,97815.19
2022-09-22T06:42:31.946Z,97816.81
2022-09-22T06:44:35.107Z,97811.63
2022-09-22T06:46:37.885Z,97815.84
2022-09-22T06:48:41.802Z,97817.56
2022-09-22T06:50:49.344Z,97801.91
2022-09-22T06:52:51.899Z,97811.38
2022-09-22T06:54:58.612Z,97807.88
2022-09-22T06:57:03.258Z,97808.66
2022-09-22T06:59:12.213Z,97806.88
2022-09-22T07:01:15.081Z,97806.81
2022-09-22T07:03:20.475Z,97806.69
2022-09-22T07:05:24.334Z,97806.69
2022-09-22T07:07:28.107Z,97804.09
2022-09-22T07:09:31.172Z,97799.72
2022-09-22T07:11:39.518Z,97800.53
2022-09-22T07:13:43.739Z,97802.16
2022-09-22T07:15:46.548Z,97796.97
2022-09-22T07:17:52.637Z,97796.06
2022-09-22T07:19:56.217Z,97799.41
2022-09-22T07:22:00.115Z,97800.25
2022-09-22T07:24:03.370Z,97797.50
2022-09-22T07:26:08.004Z,97796.53
2022-09-22T07:28:13.046Z,97794.72
2022-09-22T07:30:15.725Z,97797.28
2022-09-22T07:32:18.452Z,97796.28
2022-09-22T07:34:20.975Z,97801.41
2022-09-22T07:36:26.097Z,97784.91
2022-09-22T07:38:36.492Z,97794.38
2022-09-22T07:40:39.175Z,97795.22
2022-09-22T07:42:41.766Z,97793.44
2022-09-22T07:45:01.858Z,97790.69
2022-09-22T07:47:04.850Z,97787.13
2022-09-22T07:49:08.152Z,97789.66
2022-09-22T07:51:16.527Z,97786.94
2022-09-22T07:53:19.560Z,97792.03
2022-09-22T07:55:24.924Z,97792.88
2022-09-22T07:57:30.345Z,97791.09
2022-09-22T07:59:37.926Z,97793.59
2022-09-22T08:01:44.318Z,97798.78
2022-09-22T08:03:47.598Z,97793.56
2022-09-22T08:05:52.239Z,97792.56
2022-09-22T08:07:57.131Z,97788.16
2022-09-22T08:09:59.728Z,97789.81
2022-09-22T08:12:04.041Z,97787.16
2022-09-22T08:14:08.789Z,97789.66
2022-09-22T08:16:11.835Z,97789.59
2022-09-22T08:18:14.524Z,97779.16
2022-09-22T08:20:17.128Z,97785.06
2022-09-22T08:22:19.795Z,97777.22
2022-09-22T08:24:23.509Z,97783.19
2022-09-22T08:26:26.523Z,97780.47
2022-09-22T08:28:31.176Z,97777.75
2022-09-22T08:30:36.349Z,97769.91
2022-09-22T08:32:39.397Z,97778.50
2022-09-22T08:34:41.980Z,97776.69
2022-09-22T08:36:46.647Z,97773.09
2022-09-22T08:38:50.242Z,97766.91
2022-09-22T08:41:09.166Z,97763.34
2022-09-22T08:43:12.866Z,97766.75
2022-09-22T08:45:28.815Z,97766.66
2022-09-22T08:47:54.059Z,97762.19
2022-09-22T08:50:14.423Z,97763.78
2022-09-22T08:52:25.443Z,97760.16
2022-09-22T08:54:32.141Z,97760.13
2022-09-22T08:56:38.966Z,97749.63
2022-09-22T08:58:48.905Z,97753.81
2022-09-22T09:01:00.704Z,97753.69
2022-09-22T09:03:17.877Z,97755.38
2022-09-22T09:05:50.807Z,97758.69
2022-09-22T09:08:00.704Z,97760.31
2022-09-22T09:10:21.032Z,97762.84
2022-09-22T09:12:48.127Z,97759.22
2022-09-22T09:15:13.379Z,97748.66
2022-09-22T09:17:23.902Z,97753.75
2022-09-22T09:19:34.915Z,97754.56
2022-09-22T09:21:41.439Z,97749.25
2022-09-22T09:26:10.341Z,97750.75
2022-09-22T09:28:16.688Z,97749.69
2022-09-22T09:30:20.758Z,97746.16
2022-09-22T09:32:33.152Z,97740.81
2022-09-22T09:34:35.811Z,97746.75
2022-09-22T09:36:42.814Z,97745.59
2022-09-22T09:38:49.995Z,97748.94
2022-09-22T09:40:56.575Z,97741.97
2022-09-22T09:43:03.244Z,97740.13
2022-09-22T09:45:07.186Z,97743.44
2022-09-22T09:47:19.544Z,97738.16
2022-09-22T09:49:24.318Z,97734.53
2022-09-22T09:51:28.858Z,97735.03
2022-09-22T09:53:33.583Z,97730.63
2022-09-22T09:55:36.192Z,97732.25
2022-09-22T09:58:06.426Z,97737.25
2022-09-22T10:00:33.021Z,97732.59
2022-09-22T10:02:38.277Z,97722.91
2022-09-22T10:04:49.598Z,97720.22
2022-09-22T10:06:52.488Z,97721.00
2022-09-22T10:08:55.147Z,97722.53
2022-09-22T10:10:59.695Z,97722.44
2022-09-22T10:13:23.319Z,97717.13
2022-09-22T10:15:27.536Z,97718.81
2022-09-22T10:17:33.816Z,97712.50
2022-09-22T10:19:36.603Z,97711.38
2022-09-22T10:21:40.497Z,97704.72
2022-09-22T10:23:44.305Z,97703.16
2022-09-22T10:25:46.842Z,97710.84
2022-09-22T10:28:01.488Z,97701.13
2022-09-22T10:30:23.872Z,97705.34
2022-09-22T10:32:26.475Z,97697.38
2022-09-22T10:34:31.637Z,97705.03
2022-09-22T10:36:36.895Z,97702.31
2022-09-22T10:38:42.967Z,97700.31
2022-09-22T10:40:49.217Z,97700.31
2022-09-22T10:42:54.447Z,97695.84
2022-09-22T10:45:02.759Z,97700.19
2022-09-22T10:47:20.024Z,97701.00
2022-09-22T10:49:41.784Z,97700.88
2022-09-22T10:51:58.329Z,97693.84
2022-09-22T10:54:19.093Z,97702.34
2022-09-22T10:56:31.503Z,97703.94
2022-09-22T10:59:28.065Z,97696.56
2022-09-22T11:01:58.136Z,97692.41
2022-09-22T11:04:18.020Z,97685.25
2022-09-22T11:06:55.357Z,97692.22
2022-09-22T11:09:30.517Z,97693.88
2022-09-22T11:12:00.168Z,97693.78
2022-09-22T11:14:16.150Z,97686.38
2022-09-22T11:16:42.581Z,97680.47
2022-09-22T11:19:06.916Z,97682.22
2022-09-22T11:21:22.590Z,97674.31
2022-09-22T11:23:49.479Z,97668.53
2022-09-22T11:26:05.819Z,97669.88
2022-09-22T11:28:23.769Z,97656.81
2022-09-22T11:30:26.444Z,97660.03
2022-09-22T11:32:55.222Z,97654.81
2022-09-22T11:35:15.141Z,97657.75
2022-09-22T11:37:33.951Z,97661.41
2022-09-22T11:39:47.087Z,97656.38
2022-09-22T11:42:02.527Z,97659.38
2022-09-22T11:44:38.896Z,97658.59
2022-09-22T11:47:09.388Z,97660.53
2022-09-22T11:49:21.971Z,97658.59
2022-09-22T11:51:40.720Z,97647.88
2022-09-22T11:54:10.752Z,97656.69
2022-09-22T11:56:26.831Z,97652.59
2022-09-22T11:58:34.111Z,97644.06
2022-09-22T12:00:45.187Z,97641.91
2022-09-22T12:02:54.871Z,97642.69
2022-09-22T12:05:00.170Z,97642.78
2022-09-22T12:07:07.915Z,97639.38
2022-09-22T12:09:15.281Z,97633.91
2022-09-22T12:11:20.335Z,97637.06
2022-09-22T12:13:25.455Z,97634.91
2022-09-22T12:15:35.679Z,97635.44
2022-09-22T12:17:47.823Z,97623.84
2022-09-22T12:19:59.105Z,97620.16
2022-09-22T12:22:08.504Z,97624.22
2022-09-22T12:24:12.858Z,97619.13
2022-09-22T12:26:25.762Z,97614.94
2022-09-22T12:28:31.399Z,97621.72
2022-09-22T12:30:34.263Z,97614.97
2022-09-22T12:32:42.424Z,97612.38
2022-09-22T12:34:46.416Z,97621.72
2022-09-22T12:36:51.432Z,97608.31
2022-09-22T12:38:54.016Z,97611.78
2022-09-22T12:40:59.962Z,97607.63
2022-09-22T12:43:02.701Z,97607.63
2022-09-22T12:45:14.005Z,97609.06
2022-09-22T12:47:22.234Z,97610.75
2022-09-22T12:49:24.962Z,97605.56
2022-09-22T12:51:34.244Z,97606.25
2022-09-22T12:53:41.547Z,97610.31
2022-09-22T12:55:46.477Z,97609.97
2022-09-22T12:57:50.309Z,97599.75
2022-09-22T13:00:23.054Z,97608.97
2022-09-22T13:02:31.681Z,97604.94
2022-09-22T13:04:34.893Z,97602.25
2022-09-22T13:06:59.135Z,97598.97
2022-09-22T13:09:21.309Z,97596.22
2022-09-22T13:11:57.286Z,97586.34
2022-09-22T13:13:59.865Z,97589.97
2022-09-22T13:16:03.914Z,97588.91
2022-09-22T13:18:30.620Z,97587.06
2022-09-22T13:20:34.801Z,97581.28
2022-09-22T13:22:38.735Z,97583.69
2022-09-22T13:24:41.560Z,97579.63
2022-09-22T13:26:44.223Z,97575.47
2022-09-22T13:29:00.299Z,97571.34
2022-09-22T13:31:06.358Z,97570.03
2022-09-22T13:33:19.560Z,97575.59
2022-09-22T13:35:26.781Z,97579.09
2022-09-22T13:37:29.553Z,97572.47
2022-09-22T13:39:36.433Z,97577.41
2022-09-22T13:41:45.401Z,97574.13
2022-09-22T13:43:51.517Z,97567.47
2022-09-22T13:45:55.083Z,97572.13
2022-09-22T13:48:08.359Z,97565.84
2022-09-22T13:50:20.032Z,97573.81
2022-09-22T13:52:27.300Z,97573.28
2022-09-22T13:54:35.056Z,97570.88
2022-09-22T13:56:37.877Z,97571.94
2022-09-22T13:58:44.334Z,97561.63
2022-09-22T14:01:12.025Z,97562.69
2022-09-22T14:03:18.477Z,97558.13
2022-09-22T14:05:24.724Z,97559.00
2022-09-22T14:07:30.136Z,97562.03
2022-09-22T14:09:37.066Z,97545.44
2022-09-22T14:11:39.905Z,97560.38
2022-09-22T14:13:45.491Z,97552.91
2022-09-22T14:15:48.220Z,97558.06
2022-09-22T14:17:50.893Z,97555.91
2022-09-22T14:19:57.966Z,97558.06
2022-09-22T14:22:02.289Z,97554.81
2022-09-22T14:24:07.402Z,97547.78
2022-09-22T14:26:23.951Z,97546.53
2022-09-22T14:28:29.814Z,97542.44
2022-09-22T14:30:32.835Z,97549.91
2022-09-22T14:32:38.310Z,97538.69
2022-09-22T14:34:41.774Z,97539.75
2022-09-22T14:36:46.103Z,97532.53
2022-09-22T14:39:07.067Z,97540.41
2022-09-22T14:41:23.132Z,97540.13
2022-09-22T14:43:37.755Z,97532.06
2022-09-22T14:45:57.813Z,97534.00
2022-09-22T14:48:21.186Z,97534.13
2022-09-22T14:50:39.045Z,97537.59
2022-09-22T14:52:54.656Z,97531.31
2022-09-22T14:55:02.992Z,97532.53
2022-09-22T14:57:09.274Z,97533.00
2022-09-22T14:59:35.858Z,97536.13
2022-09-22T15:02:09.058Z,97531.28
2022-09-22T15:04:16.472Z,97524.03
2022-09-22T15:06:19.063Z,97528.22
2022-09-22T15:08:27.786Z,97521.22
2022-09-22T15:10:31.631Z,97524.34
2022-09-22T15:12:39.031Z,97515.03
2022-09-22T15:14:44.222Z,97520.56
2022-09-22T15:16:46.780Z,97517.41
2022-09-22T15:18:50.186Z,97521.97
2022-09-22T15:20:57.359Z,97515.09
2022-09-22T15:23:00.017Z,97518.06
2022-09-22T15:25:02.598Z,97517.41
2022-09-22T15:27:07.738Z,97520.97
2022-09-22T15:29:12.596Z,97511.31
2022-09-22T15:31:22.276Z,97515.44
2022-09-22T15:33:25.253Z,97520.09
2022-09-22T15:35:28.305Z,97518.81
2022-09-22T15:37:31.727Z,97510.59
2022-09-22T15:39:34.328Z,97516.56
2022-09-22T15:41:38.220Z,97510.25
2022-09-22T15:43:41.462Z,97511.88
2022-09-22T15:45:48.418Z,97505.84
2022-09-22T15:47:53.951Z,97507.97
2022-09-22T15:49:57.154Z,97510.50
2022-09-22T15:52:04.320Z,97503.84
2022-09-22T15:54:13.812Z,97504.69
2022-09-22T15:56:18.450Z,97505.44
2022-09-22T15:58:22.831Z,97503.84
2022-09-22T16:00:27.144Z,97509.97
2022-09-22T16:02:32.045Z,97505.84
2022-09-22T16:04:34.631Z,97507.41
2022-09-22T16:06:37.695Z,97507.28
2022-09-22T16:08:42.455Z,97503.88
2022-09-22T16:10:46.005Z,97503.53
2022-09-22T16:12:49.180Z,97509.84
2022-09-22T16:14:52.103Z,97502.88
2022-09-22T16:16:54.744Z,97508.09
2022-09-22T16:18:59.399Z,97508.03
2022-09-22T16:21:06.360Z,97506.19
2022-09-22T16:23:10.753Z,97501.56
2022-09-22T16:25:15.325Z,97509.03
2022-09-22T16:27:17.844Z,97503.94
2022-09-22T16:29:20.419Z,97503.41
2022-09-22T16:31:27.047Z,97512.41
2022-09-22T16:33:29.941Z,97503.19
2022-09-22T16:35:33.831Z,97509.88
2022-09-22T16:37:36.400Z,97507.88
2022-09-22T16:39:39.050Z,97503.81
2022-09-22T16:41:45.550Z,97505.31
2022-09-22T16:43:48.274Z,97511.78
2022-09-22T16:46:08.477Z,97507.84
2022-09-22T16:48:11.041Z,97509.16
2022-09-22T16:50:13.604Z,97504.50
2022-09-22T16:52:18.050Z,97506.56
2022-09-22T16:54:21.784Z,97508.63
2022-09-22T16:56:26.270Z,97514.22
2022-09-22T16:58:28.767Z,97504.91
2022-09-22T17:00:32.494Z,97510.63
2022-09-22T17:02:35.048Z,97514.44
2022-09-22T17:04:37.639Z,97515.66
2022-09-22T17:06:41.671Z,97513.47
2022-09-22T17:08:45.789Z,97511.25
2022-09-22T17:10:49.413Z,97516.00
2022-09-22T17:12:52.312Z,97514.63
2022-09-22T17:14:54.828Z,97517.50
2022-09-22T17:16:58.150Z,97512.59
2022-09-22T17:19:03.169Z,97514.72
2022-09-22T17:21:24.346Z,97516.75
2022-09-22T17:23:26.860Z,97510.22
2022-09-22T17:25:30.726Z,97514.94
2022-09-22T17:27:33.384Z,97521.41
2022-09-22T17:29:38.648Z,97514.34
2022-09-22T17:31:41.632Z,97517.75
2022-09-22T17:33:51.973Z,97518.78
2022-09-22T17:35:58.477Z,97517.22
2022-09-22T17:38:02.012Z,97515.78
2022-09-22T17:40:04.960Z,97515.16
2022-09-22T17:42:10.022Z,97519.03
2022-09-22T17:44:12.723Z,97517.66
2022-09-22T17:46:17.607Z,97520.63
2022-09-22T17:48:37.681Z,97524.50
2022-09-22T17:50:57.708Z,97533.53
2022-09-22T17:53:17.987Z,97528.66
2022-09-22T17:55:25.312Z,97535.94
2022-09-22T17:57:30.653Z,97532.41
2022-09-22T17:59:34.736Z,97533.69
2022-09-22T18:01:37.373Z,97538.41
2022-09-22T18:03:40.127Z,97535.22
2022-09-22T18:05:42.643Z,97533.81
2022-09-22T18:07:45.444Z,97538.44
2022-09-22T18:09:49.975Z,97535.13
2022-09-22T18:11:52.584Z,97536.22
2022-09-22T18:13:56.480Z,97533.88
2022-09-22T18:16:19.156Z,97537.59
2022-09-22T18:18:24.483Z,97530.88
2022-09-22T18:20:27.554Z,97536.28
2022-09-22T18:22:31.045Z,97536.47
2022-09-22T18:24:33.715Z,97537.53
2022-09-22T18:26:38.166Z,97536.00
2022-09-22T18:28:41.096Z,97541.53
2022-09-22T18:30:44.955Z,97539.13
2022-09-22T18:32:48.036Z,97542.00
2022-09-22T18:34:52.921Z,97535.97
2022-09-22T18:36:56.183Z,97532.72
2022-09-22T18:38:58.730Z,97540.78
2022-09-22T18:41:01.231Z,97536.53
2022-09-22T18:43:03.780Z,97545.69
2022-09-22T18:45:07.262Z,97543.19
2022-09-22T18:47:16.244Z,97544.03
2022-09-22T18:49:19.083Z,97546.03
2022-09-22T18:51:21.778Z,97549.69
2022-09-22T18:53:24.289Z,97557.50
2022-09-22T18:55:27.127Z,97549.91
2022-09-22T18:57:30.005Z,97549.25
2022-09-22T18:59:32.550Z,97551.84
2022-09-22T19:01:35.284Z,97547.59
2022-09-22T19:03:39.383Z,97552.00
2022-09-22T19:05:42.204Z,97552.13
2022-09-22T19:07:47.646Z,97550.50
2022-09-22T19:09:50.381Z,97551.69
2022-09-22T19:11:54.006Z,97549.06
2022-09-22T19:13:56.561Z,97545.03
2022-09-22T19:15:59.147Z,97554.78
2022-09-22T19:18:01.680Z,97552.31
2022-09-22T19:20:06.568Z,97550.66
2022-09-22T19:22:11.250Z,97551.66
2022-09-22T19:24:14.466Z,97560.41
2022-09-22T19:26:17.489Z,97553.41
2022-09-22T19:28:20.028Z,97553.56
2022-09-22T19:30:25.795Z,97559.00
2022-09-22T19:32:31.038Z,97553.94
2022-09-22T19:34:34.029Z,97561.81
2022-09-22T19:36:38.021Z,97553.16
2022-09-22T19:38:40.603Z,97553.88
2022-09-22T19:40:43.228Z,97548.56
2022-09-22T19:42:46.033Z,97552.13
2022-09-22T19:44:48.728Z,97547.09
2022-09-22T19:46:51.604Z,97545.59
2022-09-22T19:48:54.162Z,97550.53
2022-09-22T19:50:56.718Z,97546.56
2022-09-22T19:53:00.630Z,97544.06
2022-09-22T19:55:03.442Z,97544.06
2022-09-22T19:57:06.347Z,97539.81
2022-09-22T19:59:08.869Z,97541.84
2022-09-22T20:01:11.671Z,97537.84
2022-09-22T20:03:14.847Z,97537.47
2022-09-22T20:05:23.328Z,97537.84
2022-09-22T20:07:28.435Z,97536.41
2022-09-22T20:09:32.390Z,97538.44
2022-09-22T20:11:38.368Z,97541.41
2022-09-22T20:13:58.839Z,97540.75
2022-09-22T20:16:01.887Z,97538.56
2022-09-22T20:18:05.191Z,97542.19
2022-09-22T20:20:08.847Z,97542.25
2022-09-22T20:22:25.178Z,97532.81
2022-09-22T20:24:27.908Z,97546.69
2022-09-22T20:26:32.188Z,97538.03
2022-09-22T20:28:34.760Z,97543.41
2022-09-22T20:30:37.920Z,97536.69
2022-09-22T20:32:40.654Z,97534.25
2022-09-22T20:34:43.255Z,97531.28
2022-09-22T20:36:45.878Z,97535.94
2022-09-22T20:38:48.404Z,97536.22
2022-09-22T20:40:51.085Z,97533.75
2022-09-22T20:42:55.308Z,97528.09
2022-09-22T20:44:58.184Z,97531.28
2022-09-22T20:47:00.718Z,97533.38
2022-09-22T20:49:05.077Z,97545.94
2022-09-22T20:51:08.072Z,97531.06
2022-09-22T20:53:10.583Z,97530.69
2022-09-22T20:55:13.121Z,97529.25
2022-09-22T20:57:16.127Z,97529.38
2022-09-22T20:59:20.019Z,97528.47
2022-09-22T21:01:22.631Z,97523.38
2022-09-22T21:03:25.793Z,97532.13
2022-09-22T21:05:28.324Z,97527.06
2022-09-22T21:07:32.564Z,97527.78
2022-09-22T21:09:52.474Z,97527.16
2022-09-22T21:11:56.556Z,97529.97
2022-09-22T21:14:03.618Z,97530.16
2022-09-22T21:16:08.677Z,97537.31
2022-09-22T21:18:11.234Z,97532.22
2022-09-22T21:20:14.855Z,97527.88
2022-09-22T21:22:17.859Z,97533.00
2022-09-22T21:24:20.535Z,97535.56
2022-09-22T21:26:23.781Z,97530.50
2022-09-22T21:28:26.337Z,97534.13
2022-09-22T21:30:28.866Z,97530.84
2022-09-22T21:32:33.180Z,97532.72
2022-09-22T21:34:35.763Z,97532.09
2022-09-22T21:36:38.387Z,97525.09
2022-09-22T21:38:42.113Z,97532.03
2022-09-22T21:40:44.726Z,97536.50
2022-09-22T21:42:47.327Z,97527.00
2022-09-22T21:44:49.861Z,97524.56
2022-09-22T21:46:52.424Z,97526.56
2022-09-22T21:49:01.463Z,97528.28
2022-09-22T21:51:07.147Z,97525.81
2022-09-22T21:53:10.361Z,97522.44
2022-09-22T21:55:13.013Z,97531.09
2022-09-22T21:57:15.537Z,97525.88
2022-09-22T21:59:18.154Z,97527.69
2022-09-22T22:01:22.743Z,97519.06
2022-09-22T22:03:31.010Z,97514.28
2022-09-22T22:05:35.045Z,97524.94
2022-09-22T22:07:37.572Z,97516.53
2022-09-22T22:09:40.086Z,97509.84
2022-09-22T22:11:45.627Z,97512.50
2022-09-22T22:13:48.186Z,97508.50
2022-09-22T22:15:50.719Z,97507.63
2022-09-22T22:17:53.276Z,97506.09
2022-09-22T22:19:55.793Z,97508.78
2022-09-22T22:21:59.656Z,97500.94
2022-09-22T22:24:18.297Z,97506.28
2022-09-22T22:26:22.917Z,97499.97
2022-09-22T22:28:25.814Z,97502.94
2022-09-22T22:30:28.328Z,97501.00
2022-09-22T22:32:30.851Z,97503.94
2022-09-22T22:34:33.455Z,97508.31
2022-09-22T22:36:36.295Z,97499.78
2022-09-22T22:38:42.098Z,97504.13
2022-09-22T22:40:46.473Z,97505.88
2022-09-22T22:42:49.209Z,97503.31
2022-09-22T22:44:51.753Z,97502.63
2022-09-22T22:46:54.314Z,97501.75
2022-09-22T22:48:57.105Z,97502.72
2022-09-22T22:51:03.419Z,97497.63
2022-09-22T22:53:10.985Z,97493.34
2022-09-22T22:55:14.879Z,97493.34
2022-09-22T22:57:17.401Z,97490.09
2022-09-22T22:59:20.207Z,97484.19
2022-09-22T23:01:24.657Z,97481.59
2022-09-22T23:03:27.339Z,97482.38
2022-09-22T23:05:30.002Z,97476.66
2022-09-22T23:07:32.533Z,97479.34
2022-09-22T23:09:35.085Z,97476.66
2022-09-22T23:11:40.690Z,97476.00
2022-09-22T23:13:50.737Z,97471.66
2022-09-22T23:15:53.458Z,97475.13
2022-09-22T23:17:56.012Z,97466.38
2022-09-22T23:19:58.798Z,97468.28
2022-09-22T23:22:02.807Z,97469.16
2022-09-22T23:24:06.685Z,97476.22
2022-09-22T23:26:11.184Z,97468.50
2022-09-22T23:28:15.093Z,97463.25
2022-09-22T23:30:17.988Z,97471.97
2022-09-22T23:32:20.521Z,97460.09
2022-09-22T23:34:24.505Z,97467.03
2022-09-22T23:36:29.715Z,97469.81
2022-09-22T23:38:33.913Z,97457.56
2022-09-22T23:40:36.533Z,97462.69
2022-09-22T23:42:39.191Z,97459.19
2022-09-22T23:44:43.078Z,97454.19
2022-09-22T23:46:45.692Z,97462.00
2022-09-22T23:48:48.411Z,97452.56
2022-09-22T23:50:53.159Z,97455.44
2022-09-22T23:52:55.898Z,97469.34
2022-09-22T23:54:58.440Z,97462.38
2022-09-22T23:57:01.315Z,97461.75
2022-09-22T23:59:03.819Z,97453.19
